KWAL/WAL METAR and TAF weather

Enter ICAO airport designator
Station Type Date Time Source
KWAL METAR 2020/04/06 12:54 UTC NOAA

KWAL 061254Z AUTO 29007KT 10SM CLR 16/11 A3005 RMK AO2 SLP171 T01560111


Station Type Date Time Source
KWAL Decoded METAR 2020/04/06 12:54 UTC NOAA

WALLOPS FLIGHT FAC AIRPORT , VA, United States (KWAL) 37-56N 075-28W 14M
Apr 06, 2020 - 08:54 AM EDT / 2020.04.06 1254 UTC
Wind: from the WNW (290 degrees) at 8 MPH (7 KT):0
Visibility: 10 mile(s):0
Sky conditions: clear
Temperature: 60.1 F (15.6 C)
Dew Point: 52.0 F (11.1 C)
Relative Humidity: 74%
Pressure (altimeter): 30.05 in. Hg (1017 hPa)
ob: KWAL 061254Z AUTO 29007KT 10SM CLR 16/11 A3005 RMK AO2 SLP171 T01560111
cycle: 13

Station Type Date Time Source
KWAL TAF UTC NOAA

Error!

Example: see airport list